x

Nw Lake Ontario Ajax (45159) Wave Buoy

1:00pm - Tue 16th Sep 2014 All times are CDT. -5 hours from GMT.

  • Sig Wave height 0.7ft
  • Peak Period 2s
  • Wind
    16mph, 20mph gusts
  • Sea Temp 63°f
  • Air Temp 62°f
  • Sea Pressure 1017.5mb
  • Nw Lake Ontario Ajax
  • Nw Lake Ontario Ajax

More Historic Weather Station data

Upgrade to MSW Pro to gain access to the past 30 days of data for over 8000 Wavebouys and Weather Stations around the globe.

Join Pro

Comparision Forecast

View Surf forecast
   
Tue 09/16 1:00pm 0.7ft 2s 16 20 mph 1017.5mb 63f 62f
12:00pm 0.3ft 2s 11 13 mph 1017.9mb 63f 62f
11:00am 0.7ft 2s 11 13 mph 1018.2mb 62f 61f
10:00am 0.7ft 2s 13 16 mph 1018.8mb 62f 60f
9:00am 0.7ft 2s 13 18 mph 1018.9mb 62f 58f
8:00am 0.7ft 2s 13
mph
1018.6mb 62f 56f
7:00am 0.7ft 2s 13 16 mph 1018.2mb 62f 54f
6:00am 0.7ft 2s 13 18 mph 1018.1mb 62f 55f
5:00am 0.7ft 3s 16 18 mph 1017.5mb 62f 55f
4:00am 0.7ft 2s 13 16 mph 1017.2mb 62f 56f
3:00am 0.7ft 3s 13
mph
1016.9mb 62f 56f
2:00am 0.7ft 3s 9 11 mph 1016.7mb 62f 57f
1:00am 0.7ft 3s 9 11 mph 1017mb 62f 58f
12:00am 1ft 3s 11 13 mph 1017mb 62f 58f
Mon 09/15 11:00pm 1ft 4s 11 13 mph 1017.1mb 62f 59f
10:00pm 1.3ft 4s 11 13 mph 1017.2mb 62f 60f
9:00pm 1.3ft 4s 9 11 mph 1017.6mb 62f 59f
8:00pm 1.3ft 4s 4 7 mph 1017.8mb 62f 59f
7:00pm 1.6ft 4s 13 16 mph 1017.9mb 62f 59f
6:00pm 2ft 4s 11 13 mph 1018.4mb 62f 59f
5:00pm 2.5ft 4s 16 18 mph 1018.7mb 62f 58f
4:00pm 1.3ft 3s 18 25 mph 1018.2mb 62f 62f
3:00pm 1.3ft 4s 13 16 mph 1018.4mb 62f 62f
2:00pm 1.3ft 3s 13 16 mph 1019mb 62f 62f
1:00pm 1ft 3s 11 13 mph 1019.6mb 63f 62f
12:00pm 1.3ft 3s 13 16 mph 1020.4mb 63f 61f
11:00am 1.3ft 3s 13
mph
1021.1mb 63f 60f
10:00am 1ft 3s 13 16 mph 1021.6mb 63f 60f
9:00am 1ft 3s 13 16 mph 1022mb 62f 60f
8:00am 1ft 3s 11 13 mph 1022.2mb 62f 60f
7:00am 0.7ft 3s 9 11 mph 1022.5mb 62f 60f
6:00am 0.7ft 3s 11
mph
1023mb 62f 59f
5:00am 0.7ft 3s 9 11 mph 1022.8mb 62f 59f
4:00am 1ft 3s 4 7 mph 1022.5mb 62f 59f
3:00am 1.3ft 3s 4
mph
1022.5mb 62f 58f
2:00am 1.3ft 3s 7 9 mph 1022.5mb 62f 60f
1:00am 1.6ft 3s 9
mph
1022.8mb 62f 60f
12:00am 1.3ft 3s 13 18 mph 1022.7mb 62f 60f
Sun 09/14 11:00pm 1.3ft 3s 11 16 mph 1022.8mb 62f 59f
10:00pm 1ft 3s 13 16 mph 1023.1mb 62f 59f
9:00pm 0.7ft 2s 11 13 mph 1023.4mb 62f 59f
8:00pm 0.7ft 2s 9 11 mph 1023.5mb 62f 59f
7:00pm 0.3ft 2s 9 11 mph 1023.6mb 62f 58f
6:00pm 0.3ft 2s 9 11 mph 1023.7mb 62f 58f
5:00pm 0.3ft 2s 7 9 mph 1024.2mb 62f 57f
4:00pm 0.3ft 2s 7 9 mph 1024.5mb 63f 57f
3:00pm 0.3ft 2s 4
mph
1025.2mb 63f 56f
2:00pm 0.3ft 2s 4 7 mph 1025.8mb 62f 56f
1:00pm 0.3ft 2s 7 11 mph 1026.6mb 62f 56f
12:00pm 0.7ft 2s 7 9 mph 1027.1mb 62f 55f
11:00am 0.7ft 2s 9 13 mph 1027.3mb 62f 54f
10:00am 0.3ft 2s 9 13 mph 1027.7mb 62f 53f
9:00am 0.3ft 3s 9 13 mph 1027.9mb 62f 53f
8:00am 0.3ft 3s 2 4 mph 1028.2mb 62f 53f
7:00am 0.3ft 4s 2 4 mph 1028.1mb 62f 52f
6:00am 0.3ft 4s 4 7 mph 1027.7mb 62f 51f
5:00am 0.3ft 4s 2 4 mph 1027.6mb 62f 51f
4:00am 0.3ft 4s 4
mph
1027.7mb 62f 51f
3:00am 0.3ft 3s 7 9 mph 1027.3mb 62f 50f
2:00am 0.3ft 4s 4 7 mph 1027.1mb 62f 51f
1:00am 0.3ft 5s 4 7 mph 1027.2mb 62f 52f
12:00am 0.3ft 5s 4 7 mph 1027mb 62f 52f
Sat 09/13 11:00pm 0.3ft 5s 4 7 mph 1026.7mb 62f 52f
10:00pm 0.3ft 2s 9 11 mph 1026.1mb 62f 53f
9:00pm 0.7ft 2s 13 16 mph 1025.6mb 62f 54f
8:00pm 0.7ft 3s 13 16 mph 1025mb 63f 54f
7:00pm 1ft 3s 16 20 mph 1024.1mb 63f 55f
6:00pm 1ft 2s 20 22 mph 1023.2mb 63f 57f
5:00pm 1ft 2s 18 20 mph 1022.6mb 63f 57f
4:00pm 1ft 2s 18 22 mph 1021.7mb 63f 57f
3:00pm 1ft 2s 13 18 mph 1020.8mb 63f 56f
2:00pm 1ft 4s 18 22 mph 1019.8mb 63f 56f
1:00pm 1.3ft 5s 11 18 mph 1019mb 63f 54f
12:00pm 1.6ft 5s 16 18 mph 1018.2mb 63f 53f
11:00am 2.5ft 5s 7 11 mph 1018.1mb 62f 52f
10:00am 2.5ft 5s 9 13 mph 1017.6mb 62f 51f
9:00am 2.5ft 5s 11 16 mph 1018mb 62f 51f
8:00am 2.5ft 4s 18 20 mph 1018mb 62f 52f
7:00am 2.5ft 4s 18 22 mph 1019.1mb 63f 53f
6:00am 2.5ft 3s 22 27 mph 1019.1mb 63f 53f
5:00am 3.5ft 5s 20 25 mph 1020mb 63f 53f
4:00am 3.5ft 5s 18 20 mph 1020.9mb 63f 53f
3:00am 3.5ft 4s 22 27 mph 1020.9mb 63f 54f
2:00am 2.5ft 3s 25 27 mph 1021.6mb 63f 54f
1:00am 1.3ft 3s 18 25 mph 1022.6mb 63f 54f
12:00am 0.7ft 2s 16 18 mph 1023mb 63f 55f
Fri 09/12 11:00pm 0.3ft 3s 7 9 mph 1023.8mb 63f 56f
10:00pm 0.3ft 4s 7 9 mph 1024.3mb 63f 56f
9:00pm 0.3ft 4s 2
mph
1024.9mb 64f 56f
8:00pm 0.3ft 2s 2 4 mph 1024.8mb 64f 56f